createdAt,value
2023-04-08T00:01:23.203Z,91.73
2023-04-08T00:11:30.867Z,91.55
2023-04-08T00:21:38.171Z,91.48
2023-04-08T00:31:45.166Z,91.49
2023-04-08T00:41:52.183Z,91.43
2023-04-08T00:52:00.649Z,91.45
2023-04-08T01:02:08.478Z,91.19
2023-04-08T01:12:17.692Z,91.14
2023-04-08T01:22:25.010Z,91.18
2023-04-08T01:32:32.626Z,91.09
2023-04-08T01:42:40.982Z,90.70
2023-04-08T01:52:47.460Z,90.78
2023-04-08T02:02:56.765Z,90.79
2023-04-08T02:13:03.652Z,90.78
2023-04-08T02:23:14.982Z,90.76
2023-04-08T02:33:22.356Z,90.67
2023-04-08T02:43:28.672Z,90.80
2023-04-08T02:53:35.834Z,91.04
2023-04-08T03:03:42.994Z,91.07
2023-04-08T03:13:50.810Z,90.94
2023-04-08T03:23:57.979Z,90.87
2023-04-08T03:34:05.072Z,90.79
2023-04-08T03:44:12.055Z,91.07
2023-04-08T03:54:19.108Z,91.09
2023-04-08T04:04:26.868Z,91.28
2023-04-08T04:14:34.034Z,91.18
2023-04-08T04:24:41.253Z,91.20
2023-04-08T04:34:48.291Z,91.50
2023-04-08T04:44:56.207Z,91.39
2023-04-08T04:55:03.630Z,91.32
2023-04-08T05:05:11.805Z,91.33
2023-04-08T05:15:19.424Z,91.29
2023-04-08T05:25:26.451Z,91.27
2023-04-08T05:35:33.558Z,91.30
2023-04-08T05:45:40.941Z,91.14
2023-04-08T05:55:48.067Z,91.14
2023-04-08T06:05:55.036Z,90.99
2023-04-08T06:16:11.050Z,90.92
2023-04-08T06:26:18.292Z,90.82
2023-04-08T06:36:25.699Z,90.62
2023-04-08T06:46:32.732Z,90.67
2023-04-08T06:56:40.056Z,90.52
2023-04-08T07:06:47.334Z,89.93
2023-04-08T07:16:54.577Z,89.87
2023-04-08T07:27:02.359Z,89.27
2023-04-08T07:37:09.377Z,88.63
2023-04-08T07:47:16.874Z,88.15
2023-04-08T07:57:23.997Z,87.81
2023-04-08T08:07:30.740Z,87.16
2023-04-08T08:17:37.983Z,86.83
2023-04-08T08:27:45.572Z,85.87
2023-04-08T08:37:52.604Z,85.76
2023-04-08T08:58:05.640Z,84.50
2023-04-08T09:08:24.298Z,83.85
2023-04-08T09:18:31.859Z,82.26
2023-04-08T09:28:40.082Z,81.52
2023-04-08T09:38:45.238Z,79.41
2023-04-08T09:49:03.010Z,79.54
2023-04-08T09:59:10.068Z,77.18
2023-04-08T10:09:17.113Z,76.00
2023-04-08T10:19:40.842Z,75.97
2023-04-08T10:39:57.057Z,75.30
2023-04-08T10:50:13.435Z,73.55
2023-04-08T11:00:22.038Z,72.98
2023-04-08T11:10:30.067Z,72.73
2023-04-08T11:20:38.494Z,71.58
2023-04-08T11:30:46.021Z,71.44
2023-04-08T11:40:55.064Z,70.47
2023-04-08T11:51:03.725Z,70.35
2023-04-08T12:01:11.922Z,70.65
2023-04-08T12:11:20.328Z,71.11
2023-04-08T12:21:27.514Z,70.86
2023-04-08T12:31:34.898Z,71.11
2023-04-08T12:41:42.079Z,71.45
2023-04-08T12:51:49.489Z,71.37
2023-04-08T13:01:57.194Z,71.70
2023-04-08T13:12:03.702Z,71.28
2023-04-08T13:22:10.852Z,70.97
2023-04-08T13:32:18.099Z,71.18
2023-04-08T13:42:25.810Z,70.03
2023-04-08T13:52:32.995Z,70.18
2023-04-08T14:02:40.733Z,70.07
2023-04-08T14:12:48.285Z,70.39
2023-04-08T14:22:56.845Z,69.78
2023-04-08T14:33:04.200Z,70.31
2023-04-08T14:43:11.263Z,70.78
2023-04-08T14:53:18.575Z,71.18
2023-04-08T15:03:26.047Z,71.79
2023-04-08T15:13:33.956Z,72.28
2023-04-08T15:23:39.680Z,71.98
2023-04-08T15:33:48.354Z,72.76
2023-04-08T15:43:54.575Z,74.08
2023-04-08T15:54:01.774Z,74.92
2023-04-08T16:04:09.516Z,75.50
2023-04-08T16:14:18.023Z,76.21
2023-04-08T16:24:25.333Z,76.60
2023-04-08T16:34:33.265Z,77.08
2023-04-08T16:44:40.965Z,77.70
2023-04-08T16:54:48.492Z,77.89
2023-04-08T17:04:55.763Z,78.37
2023-04-08T17:15:02.977Z,78.96
2023-04-08T17:25:12.388Z,78.96
2023-04-08T17:35:18.523Z,79.35
2023-04-08T17:45:24.682Z,79.72
2023-04-08T17:55:31.076Z,80.44
2023-04-08T18:05:38.089Z,80.15
2023-04-08T18:15:43.987Z,80.44
2023-04-08T18:25:51.088Z,80.86
2023-04-08T18:35:59.729Z,81.08
2023-04-08T18:46:07.233Z,81.48
2023-04-08T18:56:15.093Z,81.61
2023-04-08T19:06:22.841Z,81.96
2023-04-08T19:16:29.197Z,82.03
2023-04-08T19:26:33.968Z,82.30
2023-04-08T19:36:40.983Z,82.36
2023-04-08T19:46:48.421Z,82.46
2023-04-08T19:56:58.186Z,82.61
2023-04-08T20:07:05.082Z,82.53
2023-04-08T20:17:11.465Z,82.79
2023-04-08T20:27:19.063Z,82.88
2023-04-08T20:37:24.972Z,83.01
2023-04-08T20:47:33.696Z,82.95
2023-04-08T20:57:40.853Z,83.01
2023-04-08T21:07:47.899Z,83.04
2023-04-08T21:17:55.083Z,83.39
2023-04-08T21:28:02.153Z,83.42
2023-04-08T21:38:09.440Z,83.31
2023-04-08T21:48:16.565Z,83.46
2023-04-08T21:58:23.535Z,83.60
2023-04-08T22:08:32.578Z,83.67
2023-04-08T22:18:40.925Z,83.89
2023-04-08T22:28:48.146Z,83.61
2023-04-08T22:38:55.325Z,84.07
2023-04-08T22:49:02.276Z,84.07
2023-04-08T22:59:09.243Z,84.13
2023-04-08T23:09:16.223Z,84.48
2023-04-08T23:19:22.780Z,84.35
2023-04-08T23:29:30.144Z,84.74
2023-04-08T23:39:36.658Z,84.58
2023-04-08T23:49:41.195Z,84.75
2023-04-08T23:59:48.377Z,84.88
